sensor_id;sensor_type;location;lat;lon;timestamp;P1;durP1;ratioP1;P2;durP2;ratioP2
27893;SDS011;15240;50.812;4.792;2022-12-19T00:02:19;41.00;;;20.10;;
27893;SDS011;15240;50.812;4.792;2022-12-19T00:04:45;44.47;;;23.47;;
27893;SDS011;15240;50.812;4.792;2022-12-19T00:07:11;40.73;;;22.13;;
27893;SDS011;15240;50.812;4.792;2022-12-19T00:09:37;40.57;;;21.07;;
27893;SDS011;15240;50.812;4.792;2022-12-19T00:12:03;39.53;;;21.03;;
27893;SDS011;15240;50.812;4.792;2022-12-19T00:14:29;37.27;;;19.67;;
27893;SDS011;15240;50.812;4.792;2022-12-19T00:16:55;36.67;;;19.00;;
27893;SDS011;15240;50.812;4.792;2022-12-19T00:19:21;40.00;;;20.47;;
27893;SDS011;15240;50.812;4.792;2022-12-19T00:21:47;33.27;;;18.33;;
27893;SDS011;15240;50.812;4.792;2022-12-19T00:24:13;37.47;;;19.00;;
27893;SDS011;15240;50.812;4.792;2022-12-19T00:26:40;36.60;;;19.73;;
27893;SDS011;15240;50.812;4.792;2022-12-19T00:29:06;34.97;;;18.97;;
27893;SDS011;15240;50.812;4.792;2022-12-19T00:31:33;35.13;;;19.20;;
27893;SDS011;15240;50.812;4.792;2022-12-19T00:33:59;39.73;;;21.00;;
27893;SDS011;15240;50.812;4.792;2022-12-19T00:36:27;36.17;;;19.20;;
27893;SDS011;15240;50.812;4.792;2022-12-19T00:38:54;38.70;;;19.90;;
27893;SDS011;15240;50.812;4.792;2022-12-19T00:41:25;40.30;;;19.83;;
27893;SDS011;15240;50.812;4.792;2022-12-19T00:43:53;36.47;;;19.43;;
27893;SDS011;15240;50.812;4.792;2022-12-19T00:46:20;36.13;;;19.03;;
27893;SDS011;15240;50.812;4.792;2022-12-19T00:48:46;36.57;;;19.57;;
27893;SDS011;15240;50.812;4.792;2022-12-19T00:51:13;32.90;;;18.10;;
27893;SDS011;15240;50.812;4.792;2022-12-19T00:53:40;38.63;;;19.73;;
27893;SDS011;15240;50.812;4.792;2022-12-19T00:56:08;32.77;;;18.83;;
27893;SDS011;15240;50.812;4.792;2022-12-19T00:58:35;36.33;;;19.03;;
27893;SDS011;15240;50.812;4.792;2022-12-19T01:01:08;38.03;;;18.87;;
27893;SDS011;15240;50.812;4.792;2022-12-19T01:03:35;31.80;;;18.20;;
27893;SDS011;15240;50.812;4.792;2022-12-19T01:06:01;32.33;;;18.23;;
27893;SDS011;15240;50.812;4.792;2022-12-19T01:08:27;31.07;;;18.17;;
27893;SDS011;15240;50.812;4.792;2022-12-19T01:10:53;33.27;;;17.43;;
27893;SDS011;15240;50.812;4.792;2022-12-19T01:13:20;32.93;;;18.53;;
27893;SDS011;15240;50.812;4.792;2022-12-19T01:15:46;34.17;;;18.13;;
27893;SDS011;15240;50.812;4.792;2022-12-19T01:18:12;35.97;;;19.20;;
27893;SDS011;15240;50.812;4.792;2022-12-19T01:20:39;34.43;;;18.07;;
27893;SDS011;15240;50.812;4.792;2022-12-19T01:23:06;38.50;;;19.63;;
27893;SDS011;15240;50.812;4.792;2022-12-19T01:25:33;40.33;;;19.23;;
27893;SDS011;15240;50.812;4.792;2022-12-19T01:27:59;37.70;;;18.47;;
27893;SDS011;15240;50.812;4.792;2022-12-19T01:30:25;38.37;;;18.73;;
27893;SDS011;15240;50.812;4.792;2022-12-19T01:32:52;42.70;;;20.53;;
27893;SDS011;15240;50.812;4.792;2022-12-19T01:35:18;37.43;;;19.23;;
27893;SDS011;15240;50.812;4.792;2022-12-19T01:37:44;39.37;;;21.00;;
27893;SDS011;15240;50.812;4.792;2022-12-19T01:40:10;38.57;;;19.07;;
27893;SDS011;15240;50.812;4.792;2022-12-19T01:42:37;41.77;;;19.50;;
27893;SDS011;15240;50.812;4.792;2022-12-19T01:47:34;38.60;;;19.43;;
27893;SDS011;15240;50.812;4.792;2022-12-19T01:50:08;43.27;;;18.37;;
27893;SDS011;15240;50.812;4.792;2022-12-19T01:52:36;39.30;;;19.60;;
27893;SDS011;15240;50.812;4.792;2022-12-19T01:55:02;40.03;;;20.93;;
27893;SDS011;15240;50.812;4.792;2022-12-19T01:57:28;45.80;;;21.40;;
27893;SDS011;15240;50.812;4.792;2022-12-19T01:59:55;39.30;;;21.50;;
27893;SDS011;15240;50.812;4.792;2022-12-19T02:02:36;45.40;;;21.97;;
27893;SDS011;15240;50.812;4.792;2022-12-19T02:05:03;42.57;;;21.37;;
27893;SDS011;15240;50.812;4.792;2022-12-19T02:07:30;40.93;;;21.43;;
27893;SDS011;15240;50.812;4.792;2022-12-19T02:09:57;43.83;;;21.27;;
27893;SDS011;15240;50.812;4.792;2022-12-19T02:12:23;43.83;;;21.40;;
27893;SDS011;15240;50.812;4.792;2022-12-19T02:14:50;44.93;;;22.97;;
27893;SDS011;15240;50.812;4.792;2022-12-19T02:25:02;43.70;;;21.63;;
27893;SDS011;15240;50.812;4.792;2022-12-19T02:27:41;39.13;;;20.23;;
27893;SDS011;15240;50.812;4.792;2022-12-19T02:30:15;39.47;;;21.30;;
27893;SDS011;15240;50.812;4.792;2022-12-19T02:37:43;31.53;;;16.63;;
27893;SDS011;15240;50.812;4.792;2022-12-19T02:40:20;35.93;;;18.87;;
27893;SDS011;15240;50.812;4.792;2022-12-19T02:42:49;34.47;;;17.80;;
27893;SDS011;15240;50.812;4.792;2022-12-19T02:45:16;37.53;;;18.23;;
27893;SDS011;15240;50.812;4.792;2022-12-19T02:47:44;37.80;;;18.30;;
27893;SDS011;15240;50.812;4.792;2022-12-19T02:50:11;33.17;;;17.83;;
27893;SDS011;15240;50.812;4.792;2022-12-19T02:55:04;34.63;;;17.33;;
27893;SDS011;15240;50.812;4.792;2022-12-19T03:00:03;30.47;;;17.30;;
27893;SDS011;15240;50.812;4.792;2022-12-19T03:02:39;35.40;;;17.73;;
27893;SDS011;15240;50.812;4.792;2022-12-19T03:10:17;32.50;;;17.90;;
27893;SDS011;15240;50.812;4.792;2022-12-19T03:12:58;29.73;;;15.77;;
27893;SDS011;15240;50.812;4.792;2022-12-19T03:15:25;32.00;;;17.03;;
27893;SDS011;15240;50.812;4.792;2022-12-19T03:17:55;33.80;;;17.07;;
27893;SDS011;15240;50.812;4.792;2022-12-19T03:20:32;30.27;;;16.03;;
27893;SDS011;15240;50.812;4.792;2022-12-19T03:23:01;29.83;;;16.43;;
27893;SDS011;15240;50.812;4.792;2022-12-19T03:25:27;31.13;;;16.17;;
27893;SDS011;15240;50.812;4.792;2022-12-19T03:27:54;30.00;;;16.33;;
27893;SDS011;15240;50.812;4.792;2022-12-19T03:30:21;26.17;;;14.90;;
27893;SDS011;15240;50.812;4.792;2022-12-19T03:32:47;29.07;;;17.00;;
27893;SDS011;15240;50.812;4.792;2022-12-19T03:37:40;27.23;;;15.40;;
27893;SDS011;15240;50.812;4.792;2022-12-19T03:40:08;27.43;;;15.97;;
27893;SDS011;15240;50.812;4.792;2022-12-19T03:42:35;27.00;;;16.07;;
27893;SDS011;15240;50.812;4.792;2022-12-19T03:48:08;28.77;;;15.53;;
27893;SDS011;15240;50.812;4.792;2022-12-19T03:50:40;26.27;;;15.50;;
27893;SDS011;15240;50.812;4.792;2022-12-19T03:53:14;28.33;;;15.90;;
27893;SDS011;15240;50.812;4.792;2022-12-19T03:55:46;26.43;;;15.37;;
27893;SDS011;15240;50.812;4.792;2022-12-19T03:58:15;24.87;;;14.17;;
27893;SDS011;15240;50.812;4.792;2022-12-19T04:00:44;22.67;;;14.03;;
27893;SDS011;15240;50.812;4.792;2022-12-19T04:03:12;25.27;;;13.87;;
27893;SDS011;15240;50.812;4.792;2022-12-19T04:05:39;23.37;;;13.97;;
27893;SDS011;15240;50.812;4.792;2022-12-19T04:08:06;23.90;;;13.37;;
27893;SDS011;15240;50.812;4.792;2022-12-19T04:10:34;23.07;;;14.17;;
27893;SDS011;15240;50.812;4.792;2022-12-19T04:13:04;19.67;;;12.77;;
27893;SDS011;15240;50.812;4.792;2022-12-19T04:15:50;20.10;;;12.40;;
27893;SDS011;15240;50.812;4.792;2022-12-19T04:18:19;20.80;;;12.63;;
27893;SDS011;15240;50.812;4.792;2022-12-19T04:20:49;20.70;;;12.27;;
27893;SDS011;15240;50.812;4.792;2022-12-19T04:23:20;22.10;;;13.00;;
27893;SDS011;15240;50.812;4.792;2022-12-19T04:25:49;21.53;;;13.77;;
27893;SDS011;15240;50.812;4.792;2022-12-19T04:28:22;19.30;;;12.37;;
27893;SDS011;15240;50.812;4.792;2022-12-19T04:30:49;17.33;;;11.87;;
27893;SDS011;15240;50.812;4.792;2022-12-19T04:33:16;18.63;;;12.43;;
27893;SDS011;15240;50.812;4.792;2022-12-19T04:35:42;16.70;;;10.63;;
27893;SDS011;15240;50.812;4.792;2022-12-19T04:38:08;16.63;;;11.77;;
27893;SDS011;15240;50.812;4.792;2022-12-19T04:40:34;16.23;;;10.80;;
27893;SDS011;15240;50.812;4.792;2022-12-19T04:43:00;19.83;;;11.50;;
27893;SDS011;15240;50.812;4.792;2022-12-19T04:45:26;17.33;;;11.43;;
27893;SDS011;15240;50.812;4.792;2022-12-19T04:47:52;18.37;;;11.70;;
27893;SDS011;15240;50.812;4.792;2022-12-19T04:50:18;16.47;;;10.60;;
27893;SDS011;15240;50.812;4.792;2022-12-19T04:52:44;19.13;;;14.00;;
27893;SDS011;15240;50.812;4.792;2022-12-19T04:55:11;18.87;;;10.97;;
27893;SDS011;15240;50.812;4.792;2022-12-19T04:57:37;16.87;;;10.90;;
27893;SDS011;15240;50.812;4.792;2022-12-19T05:00:03;17.87;;;10.83;;
27893;SDS011;15240;50.812;4.792;2022-12-19T05:02:32;15.63;;;10.13;;
27893;SDS011;15240;50.812;4.792;2022-12-19T05:04:58;16.23;;;10.33;;
27893;SDS011;15240;50.812;4.792;2022-12-19T05:07:25;16.87;;;10.97;;
27893;SDS011;15240;50.812;4.792;2022-12-19T05:09:51;20.13;;;11.03;;
27893;SDS011;15240;50.812;4.792;2022-12-19T05:12:17;16.20;;;11.00;;
27893;SDS011;15240;50.812;4.792;2022-12-19T05:14:43;19.93;;;11.80;;
27893;SDS011;15240;50.812;4.792;2022-12-19T05:17:09;15.20;;;10.40;;
27893;SDS011;15240;50.812;4.792;2022-12-19T05:19:35;16.97;;;10.50;;
27893;SDS011;15240;50.812;4.792;2022-12-19T05:22:01;16.83;;;9.97;;
27893;SDS011;15240;50.812;4.792;2022-12-19T05:24:28;20.27;;;10.63;;
27893;SDS011;15240;50.812;4.792;2022-12-19T05:26:54;19.33;;;11.43;;
27893;SDS011;15240;50.812;4.792;2022-12-19T05:29:20;16.83;;;10.77;;
27893;SDS011;15240;50.812;4.792;2022-12-19T05:31:46;17.50;;;11.07;;
27893;SDS011;15240;50.812;4.792;2022-12-19T05:34:12;18.30;;;10.73;;
27893;SDS011;15240;50.812;4.792;2022-12-19T05:36:38;15.37;;;10.70;;
27893;SDS011;15240;50.812;4.792;2022-12-19T05:39:04;14.63;;;9.90;;
27893;SDS011;15240;50.812;4.792;2022-12-19T05:41:30;15.40;;;10.67;;
27893;SDS011;15240;50.812;4.792;2022-12-19T05:43:56;14.07;;;9.40;;
27893;SDS011;15240;50.812;4.792;2022-12-19T05:46:23;15.03;;;10.33;;
27893;SDS011;15240;50.812;4.792;2022-12-19T05:48:51;13.33;;;9.43;;
27893;SDS011;15240;50.812;4.792;2022-12-19T05:51:17;18.07;;;10.53;;
27893;SDS011;15240;50.812;4.792;2022-12-19T05:53:43;16.07;;;10.23;;
27893;SDS011;15240;50.812;4.792;2022-12-19T05:56:10;13.57;;;10.50;;
27893;SDS011;15240;50.812;4.792;2022-12-19T05:58:37;14.40;;;9.43;;
27893;SDS011;15240;50.812;4.792;2022-12-19T06:01:14;16.53;;;11.37;;
27893;SDS011;15240;50.812;4.792;2022-12-19T06:03:41;14.80;;;9.70;;
27893;SDS011;15240;50.812;4.792;2022-12-19T06:06:09;14.40;;;10.20;;
27893;SDS011;15240;50.812;4.792;2022-12-19T06:08:35;14.73;;;9.50;;
27893;SDS011;15240;50.812;4.792;2022-12-19T06:11:02;13.83;;;9.83;;
27893;SDS011;15240;50.812;4.792;2022-12-19T06:13:28;15.77;;;10.07;;
27893;SDS011;15240;50.812;4.792;2022-12-19T06:18:24;14.30;;;9.10;;
27893;SDS011;15240;50.812;4.792;2022-12-19T06:20:57;14.00;;;9.73;;
27893;SDS011;15240;50.812;4.792;2022-12-19T06:23:23;15.60;;;10.10;;
27893;SDS011;15240;50.812;4.792;2022-12-19T06:25:49;16.07;;;10.70;;
27893;SDS011;15240;50.812;4.792;2022-12-19T06:28:15;13.73;;;9.03;;
27893;SDS011;15240;50.812;4.792;2022-12-19T06:30:41;15.23;;;9.53;;
27893;SDS011;15240;50.812;4.792;2022-12-19T06:33:07;13.17;;;8.87;;
27893;SDS011;15240;50.812;4.792;2022-12-19T06:38:37;13.90;;;9.63;;
27893;SDS011;15240;50.812;4.792;2022-12-19T06:44:08;15.40;;;9.90;;
27893;SDS011;15240;50.812;4.792;2022-12-19T06:46:34;14.60;;;9.60;;
27893;SDS011;15240;50.812;4.792;2022-12-19T06:49:00;13.60;;;9.43;;
27893;SDS011;15240;50.812;4.792;2022-12-19T06:51:27;16.77;;;11.03;;
27893;SDS011;15240;50.812;4.792;2022-12-19T06:53:54;12.80;;;8.50;;
27893;SDS011;15240;50.812;4.792;2022-12-19T06:56:20;15.43;;;9.50;;
27893;SDS011;15240;50.812;4.792;2022-12-19T06:58:46;16.77;;;9.30;;
27893;SDS011;15240;50.812;4.792;2022-12-19T07:03:42;12.27;;;8.37;;
27893;SDS011;15240;50.812;4.792;2022-12-19T07:06:09;14.10;;;9.07;;
27893;SDS011;15240;50.812;4.792;2022-12-19T07:08:35;12.63;;;8.27;;
27893;SDS011;15240;50.812;4.792;2022-12-19T07:11:01;12.03;;;8.23;;
27893;SDS011;15240;50.812;4.792;2022-12-19T07:13:27;11.47;;;8.40;;
27893;SDS011;15240;50.812;4.792;2022-12-19T07:15:53;13.80;;;8.13;;
27893;SDS011;15240;50.812;4.792;2022-12-19T07:18:21;15.40;;;9.97;;
27893;SDS011;15240;50.812;4.792;2022-12-19T07:20:47;13.27;;;9.03;;
27893;SDS011;15240;50.812;4.792;2022-12-19T07:23:15;14.67;;;9.33;;
27893;SDS011;15240;50.812;4.792;2022-12-19T07:25:43;13.03;;;8.63;;
27893;SDS011;15240;50.812;4.792;2022-12-19T07:28:09;12.37;;;8.90;;
27893;SDS011;15240;50.812;4.792;2022-12-19T07:30:35;12.07;;;8.37;;
27893;SDS011;15240;50.812;4.792;2022-12-19T07:33:01;12.93;;;8.13;;
27893;SDS011;15240;50.812;4.792;2022-12-19T07:35:28;11.77;;;8.57;;
27893;SDS011;15240;50.812;4.792;2022-12-19T07:37:59;15.93;;;8.20;;
27893;SDS011;15240;50.812;4.792;2022-12-19T07:40:25;11.87;;;8.13;;
27893;SDS011;15240;50.812;4.792;2022-12-19T07:42:51;12.67;;;8.27;;
27893;SDS011;15240;50.812;4.792;2022-12-19T07:45:17;12.40;;;7.53;;
27893;SDS011;15240;50.812;4.792;2022-12-19T07:47:44;10.90;;;7.60;;
27893;SDS011;15240;50.812;4.792;2022-12-19T07:50:11;12.07;;;8.33;;
27893;SDS011;15240;50.812;4.792;2022-12-19T07:52:37;11.93;;;8.17;;
27893;SDS011;15240;50.812;4.792;2022-12-19T07:55:04;12.37;;;7.93;;
27893;SDS011;15240;50.812;4.792;2022-12-19T07:57:30;11.53;;;7.97;;
27893;SDS011;15240;50.812;4.792;2022-12-19T07:59:56;9.73;;;7.07;;
27893;SDS011;15240;50.812;4.792;2022-12-19T08:02:22;10.83;;;7.70;;
27893;SDS011;15240;50.812;4.792;2022-12-19T08:04:48;15.03;;;9.53;;
27893;SDS011;15240;50.812;4.792;2022-12-19T08:07:14;10.67;;;7.37;;
27893;SDS011;15240;50.812;4.792;2022-12-19T08:09:40;10.47;;;7.23;;
27893;SDS011;15240;50.812;4.792;2022-12-19T08:12:06;12.77;;;7.37;;
27893;SDS011;15240;50.812;4.792;2022-12-19T08:14:33;11.07;;;6.57;;
27893;SDS011;15240;50.812;4.792;2022-12-19T08:16:59;9.73;;;7.23;;
27893;SDS011;15240;50.812;4.792;2022-12-19T08:19:25;13.43;;;7.63;;
27893;SDS011;15240;50.812;4.792;2022-12-19T08:24:56;10.10;;;7.27;;
27893;SDS011;15240;50.812;4.792;2022-12-19T08:27:23;11.53;;;7.60;;
27893;SDS011;15240;50.812;4.792;2022-12-19T08:29:49;11.20;;;7.03;;
27893;SDS011;15240;50.812;4.792;2022-12-19T08:32:15;11.60;;;7.60;;
27893;SDS011;15240;50.812;4.792;2022-12-19T08:34:41;13.70;;;7.90;;
27893;SDS011;15240;50.812;4.792;2022-12-19T08:37:07;11.63;;;8.10;;
27893;SDS011;15240;50.812;4.792;2022-12-19T08:39:34;13.47;;;7.70;;
27893;SDS011;15240;50.812;4.792;2022-12-19T08:42:01;9.50;;;7.23;;
27893;SDS011;15240;50.812;4.792;2022-12-19T08:44:27;11.13;;;6.30;;
27893;SDS011;15240;50.812;4.792;2022-12-19T08:46:53;12.23;;;6.70;;
27893;SDS011;15240;50.812;4.792;2022-12-19T08:49:19;25.27;;;8.07;;
27893;SDS011;15240;50.812;4.792;2022-12-19T08:51:45;12.60;;;7.33;;
27893;SDS011;15240;50.812;4.792;2022-12-19T08:54:11;11.73;;;7.60;;
27893;SDS011;15240;50.812;4.792;2022-12-19T08:56:37;10.73;;;7.73;;
27893;SDS011;15240;50.812;4.792;2022-12-19T08:59:04;9.90;;;6.50;;
27893;SDS011;15240;50.812;4.792;2022-12-19T09:01:30;11.93;;;6.27;;
27893;SDS011;15240;50.812;4.792;2022-12-19T09:03:56;10.53;;;6.77;;
27893;SDS011;15240;50.812;4.792;2022-12-19T09:06:23;11.07;;;6.67;;
27893;SDS011;15240;50.812;4.792;2022-12-19T09:08:49;10.37;;;6.37;;
27893;SDS011;15240;50.812;4.792;2022-12-19T09:11:16;10.90;;;7.30;;
27893;SDS011;15240;50.812;4.792;2022-12-19T09:13:43;13.43;;;6.87;;
27893;SDS011;15240;50.812;4.792;2022-12-19T09:16:11;10.47;;;6.47;;
27893;SDS011;15240;50.812;4.792;2022-12-19T09:18:37;9.17;;;6.20;;
27893;SDS011;15240;50.812;4.792;2022-12-19T09:21:03;11.33;;;6.73;;
27893;SDS011;15240;50.812;4.792;2022-12-19T09:23:29;11.13;;;6.17;;
27893;SDS011;15240;50.812;4.792;2022-12-19T09:25:56;13.37;;;6.20;;
27893;SDS011;15240;50.812;4.792;2022-12-19T09:28:26;9.77;;;6.00;;
27893;SDS011;15240;50.812;4.792;2022-12-19T09:30:55;9.40;;;6.20;;
27893;SDS011;15240;50.812;4.792;2022-12-19T09:33:22;8.47;;;6.07;;
27893;SDS011;15240;50.812;4.792;2022-12-19T09:35:48;9.13;;;5.13;;
27893;SDS011;15240;50.812;4.792;2022-12-19T09:38:15;7.83;;;5.00;;
27893;SDS011;15240;50.812;4.792;2022-12-19T09:40:46;8.67;;;4.97;;
27893;SDS011;15240;50.812;4.792;2022-12-19T09:44:17;9.03;;;5.40;;
27893;SDS011;15240;50.812;4.792;2022-12-19T09:46:16;8.03;;;6.27;;
27893;SDS011;15240;50.812;4.792;2022-12-19T09:48:44;7.90;;;5.30;;
27893;SDS011;15240;50.812;4.792;2022-12-19T09:51:12;9.17;;;5.83;;
27893;SDS011;15240;50.812;4.792;2022-12-19T09:54:03;12.50;;;5.50;;
27893;SDS011;15240;50.812;4.792;2022-12-19T09:56:27;9.13;;;5.50;;
27893;SDS011;15240;50.812;4.792;2022-12-19T09:58:55;7.80;;;5.43;;
27893;SDS011;15240;50.812;4.792;2022-12-19T10:01:25;8.73;;;5.80;;
27893;SDS011;15240;50.812;4.792;2022-12-19T10:03:57;10.33;;;6.23;;
27893;SDS011;15240;50.812;4.792;2022-12-19T10:06:24;7.63;;;5.50;;
27893;SDS011;15240;50.812;4.792;2022-12-19T10:08:50;8.80;;;5.63;;
27893;SDS011;15240;50.812;4.792;2022-12-19T10:19:09;8.30;;;5.20;;
27893;SDS011;15240;50.812;4.792;2022-12-19T10:26:51;7.00;;;5.30;;
27893;SDS011;15240;50.812;4.792;2022-12-19T10:32:08;8.23;;;5.23;;
27893;SDS011;15240;50.812;4.792;2022-12-19T10:34:39;5.50;;;4.23;;
27893;SDS011;15240;50.812;4.792;2022-12-19T10:37:25;6.20;;;4.60;;
27893;SDS011;15240;50.812;4.792;2022-12-19T10:45:00;9.90;;;4.57;;
27893;SDS011;15240;50.812;4.792;2022-12-19T10:47:28;7.93;;;4.53;;
27893;SDS011;15240;50.812;4.792;2022-12-19T10:49:54;6.23;;;4.60;;
27893;SDS011;15240;50.812;4.792;2022-12-19T10:57:59;6.47;;;4.60;;
27893;SDS011;15240;50.812;4.792;2022-12-19T11:00:26;8.13;;;4.53;;
27893;SDS011;15240;50.812;4.792;2022-12-19T11:03:03;6.40;;;4.00;;
27893;SDS011;15240;50.812;4.792;2022-12-19T11:10:43;6.60;;;4.10;;
27893;SDS011;15240;50.812;4.792;2022-12-19T11:13:22;6.80;;;4.23;;
27893;SDS011;15240;50.812;4.792;2022-12-19T11:15:55;6.67;;;4.43;;
27893;SDS011;15240;50.812;4.792;2022-12-19T11:18:22;9.00;;;4.67;;
27893;SDS011;15240;50.812;4.792;2022-12-19T11:20:57;6.90;;;3.97;;
27893;SDS011;15240;50.812;4.792;2022-12-19T11:23:24;6.70;;;4.27;;
27893;SDS011;15240;50.812;4.792;2022-12-19T11:25:52;8.70;;;4.10;;
27893;SDS011;15240;50.812;4.792;2022-12-19T11:28:19;6.20;;;3.83;;
27893;SDS011;15240;50.812;4.792;2022-12-19T11:30:56;5.73;;;3.73;;
27893;SDS011;15240;50.812;4.792;2022-12-19T11:33:23;6.30;;;3.70;;
27893;SDS011;15240;50.812;4.792;2022-12-19T11:35:50;8.10;;;3.90;;
27893;SDS011;15240;50.812;4.792;2022-12-19T11:41:03;6.50;;;3.80;;
27893;SDS011;15240;50.812;4.792;2022-12-19T11:43:54;6.17;;;3.63;;
27893;SDS011;15240;50.812;4.792;2022-12-19T11:48:51;5.37;;;3.80;;
27893;SDS011;15240;50.812;4.792;2022-12-19T11:56:33;7.90;;;4.40;;
27893;SDS011;15240;50.812;4.792;2022-12-19T11:59:00;7.13;;;4.20;;
27893;SDS011;15240;50.812;4.792;2022-12-19T12:06:37;6.63;;;3.90;;
27893;SDS011;15240;50.812;4.792;2022-12-19T12:11:52;5.77;;;3.63;;
27893;SDS011;15240;50.812;4.792;2022-12-19T12:14:19;6.23;;;3.97;;
27893;SDS011;15240;50.812;4.792;2022-12-19T12:16:51;5.33;;;3.67;;
27893;SDS011;15240;50.812;4.792;2022-12-19T12:22:06;5.67;;;3.30;;
27893;SDS011;15240;50.812;4.792;2022-12-19T12:32:40;5.77;;;3.60;;
27893;SDS011;15240;50.812;4.792;2022-12-19T12:40:17;6.10;;;3.10;;
27893;SDS011;15240;50.812;4.792;2022-12-19T12:45:19;7.73;;;3.43;;
27893;SDS011;15240;50.812;4.792;2022-12-19T12:47:47;8.23;;;3.50;;
27893;SDS011;15240;50.812;4.792;2022-12-19T12:50:14;5.23;;;2.87;;
27893;SDS011;15240;50.812;4.792;2022-12-19T12:52:42;6.20;;;3.13;;
27893;SDS011;15240;50.812;4.792;2022-12-19T13:01:07;6.00;;;3.03;;
27893;SDS011;15240;50.812;4.792;2022-12-19T13:03:34;4.97;;;3.20;;
27893;SDS011;15240;50.812;4.792;2022-12-19T13:06:04;4.47;;;2.90;;
27893;SDS011;15240;50.812;4.792;2022-12-19T13:08:36;5.47;;;2.93;;
27893;SDS011;15240;50.812;4.792;2022-12-19T13:11:04;5.37;;;2.80;;
27893;SDS011;15240;50.812;4.792;2022-12-19T13:48:48;4.57;;;2.53;;
27893;SDS011;15240;50.812;4.792;2022-12-19T13:51:14;7.17;;;3.10;;
27893;SDS011;15240;50.812;4.792;2022-12-19T13:53:41;4.57;;;3.00;;
27893;SDS011;15240;50.812;4.792;2022-12-19T14:03:48;4.70;;;2.87;;
27893;SDS011;15240;50.812;4.792;2022-12-19T14:08:42;6.13;;;3.20;;
27893;SDS011;15240;50.812;4.792;2022-12-19T14:11:11;6.03;;;2.80;;
27893;SDS011;15240;50.812;4.792;2022-12-19T14:13:43;4.70;;;3.20;;
27893;SDS011;15240;50.812;4.792;2022-12-19T14:16:28;7.10;;;3.47;;
27893;SDS011;15240;50.812;4.792;2022-12-19T14:18:54;5.80;;;3.30;;
27893;SDS011;15240;50.812;4.792;2022-12-19T14:21:21;4.00;;;2.77;;
27893;SDS011;15240;50.812;4.792;2022-12-19T14:23:48;6.90;;;3.23;;
27893;SDS011;15240;50.812;4.792;2022-12-19T14:26:27;4.00;;;2.67;;
27893;SDS011;15240;50.812;4.792;2022-12-19T14:28:57;7.03;;;2.80;;
27893;SDS011;15240;50.812;4.792;2022-12-19T14:31:24;5.10;;;2.80;;
27893;SDS011;15240;50.812;4.792;2022-12-19T14:33:51;4.90;;;2.87;;
27893;SDS011;15240;50.812;4.792;2022-12-19T14:36:25;6.90;;;3.20;;
27893;SDS011;15240;50.812;4.792;2022-12-19T14:38:52;5.93;;;3.10;;
27893;SDS011;15240;50.812;4.792;2022-12-19T14:41:18;6.43;;;3.57;;
27893;SDS011;15240;50.812;4.792;2022-12-19T14:44:05;4.50;;;3.03;;
27893;SDS011;15240;50.812;4.792;2022-12-19T14:46:31;5.60;;;3.17;;
27893;SDS011;15240;50.812;4.792;2022-12-19T14:51:31;6.00;;;3.03;;
27893;SDS011;15240;50.812;4.792;2022-12-19T14:54:17;6.07;;;3.10;;
27893;SDS011;15240;50.812;4.792;2022-12-19T14:59:35;5.50;;;3.80;;
27893;SDS011;15240;50.812;4.792;2022-12-19T15:04:31;7.77;;;3.90;;
27893;SDS011;15240;50.812;4.792;2022-12-19T15:06:58;7.97;;;4.50;;
27893;SDS011;15240;50.812;4.792;2022-12-19T15:09:25;5.20;;;3.40;;
27893;SDS011;15240;50.812;4.792;2022-12-19T15:11:53;6.03;;;3.27;;
27893;SDS011;15240;50.812;4.792;2022-12-19T15:14:42;5.80;;;3.10;;
27893;SDS011;15240;50.812;4.792;2022-12-19T15:17:30;6.10;;;3.23;;
27893;SDS011;15240;50.812;4.792;2022-12-19T15:19:55;5.80;;;3.50;;
27893;SDS011;15240;50.812;4.792;2022-12-19T15:22:21;5.87;;;3.20;;
27893;SDS011;15240;50.812;4.792;2022-12-19T15:24:47;5.70;;;3.20;;
27893;SDS011;15240;50.812;4.792;2022-12-19T15:27:14;7.33;;;3.20;;
27893;SDS011;15240;50.812;4.792;2022-12-19T15:29:41;6.80;;;3.77;;
27893;SDS011;15240;50.812;4.792;2022-12-19T15:35:15;6.27;;;3.10;;
27893;SDS011;15240;50.812;4.792;2022-12-19T15:37:45;5.03;;;3.40;;
27893;SDS011;15240;50.812;4.792;2022-12-19T15:40:15;8.13;;;3.53;;
27893;SDS011;15240;50.812;4.792;2022-12-19T15:42:46;8.03;;;3.57;;
27893;SDS011;15240;50.812;4.792;2022-12-19T15:45:15;5.87;;;3.30;;
27893;SDS011;15240;50.812;4.792;2022-12-19T15:47:47;7.47;;;3.33;;
27893;SDS011;15240;50.812;4.792;2022-12-19T15:50:18;5.20;;;3.60;;
27893;SDS011;15240;50.812;4.792;2022-12-19T15:52:44;7.47;;;3.70;;
27893;SDS011;15240;50.812;4.792;2022-12-19T15:55:11;8.73;;;3.57;;
27893;SDS011;15240;50.812;4.792;2022-12-19T15:57:39;6.07;;;3.80;;
27893;SDS011;15240;50.812;4.792;2022-12-19T16:06:13;9.33;;;4.37;;
27893;SDS011;15240;50.812;4.792;2022-12-19T16:08:40;8.13;;;4.87;;
27893;SDS011;15240;50.812;4.792;2022-12-19T16:11:09;10.10;;;4.90;;
27893;SDS011;15240;50.812;4.792;2022-12-19T16:13:41;9.53;;;4.60;;
27893;SDS011;15240;50.812;4.792;2022-12-19T16:16:09;11.23;;;4.77;;
27893;SDS011;15240;50.812;4.792;2022-12-19T16:18:35;8.07;;;4.70;;
27893;SDS011;15240;50.812;4.792;2022-12-19T16:21:03;8.10;;;4.20;;
27893;SDS011;15240;50.812;4.792;2022-12-19T16:23:29;6.27;;;3.90;;
27893;SDS011;15240;50.812;4.792;2022-12-19T16:25:55;6.77;;;4.37;;
27893;SDS011;15240;50.812;4.792;2022-12-19T16:30:54;5.70;;;3.77;;
27893;SDS011;15240;50.812;4.792;2022-12-19T16:33:21;10.27;;;4.10;;
27893;SDS011;15240;50.812;4.792;2022-12-19T16:35:48;8.47;;;4.57;;
27893;SDS011;15240;50.812;4.792;2022-12-19T16:38:15;7.93;;;3.77;;
27893;SDS011;15240;50.812;4.792;2022-12-19T16:40:41;7.20;;;4.43;;
27893;SDS011;15240;50.812;4.792;2022-12-19T16:45:52;5.77;;;3.77;;
27893;SDS011;15240;50.812;4.792;2022-12-19T16:48:19;7.17;;;4.53;;
27893;SDS011;15240;50.812;4.792;2022-12-19T16:50:45;5.67;;;3.70;;
27893;SDS011;15240;50.812;4.792;2022-12-19T16:53:12;7.50;;;4.23;;
27893;SDS011;15240;50.812;4.792;2022-12-19T16:55:38;7.37;;;3.90;;
27893;SDS011;15240;50.812;4.792;2022-12-19T16:58:04;6.60;;;4.40;;
27893;SDS011;15240;50.812;4.792;2022-12-19T17:00:30;5.93;;;3.87;;
27893;SDS011;15240;50.812;4.792;2022-12-19T17:03:05;7.53;;;3.97;;
27893;SDS011;15240;50.812;4.792;2022-12-19T17:05:33;8.47;;;4.17;;
27893;SDS011;15240;50.812;4.792;2022-12-19T17:07:59;7.47;;;4.47;;
27893;SDS011;15240;50.812;4.792;2022-12-19T17:10:30;7.27;;;4.47;;
27893;SDS011;15240;50.812;4.792;2022-12-19T17:12:57;5.00;;;3.87;;
27893;SDS011;15240;50.812;4.792;2022-12-19T17:15:30;4.53;;;3.70;;
27893;SDS011;15240;50.812;4.792;2022-12-19T17:17:59;7.30;;;4.07;;
27893;SDS011;15240;50.812;4.792;2022-12-19T17:20:27;6.93;;;3.80;;
27893;SDS011;15240;50.812;4.792;2022-12-19T17:22:55;7.27;;;4.20;;
27893;SDS011;15240;50.812;4.792;2022-12-19T17:25:22;7.63;;;3.90;;
27893;SDS011;15240;50.812;4.792;2022-12-19T17:27:50;7.27;;;4.33;;
27893;SDS011;15240;50.812;4.792;2022-12-19T17:30:16;6.73;;;4.00;;
27893;SDS011;15240;50.812;4.792;2022-12-19T17:32:42;7.40;;;3.80;;
27893;SDS011;15240;50.812;4.792;2022-12-19T17:35:16;5.57;;;3.70;;
27893;SDS011;15240;50.812;4.792;2022-12-19T17:37:43;6.23;;;3.90;;
27893;SDS011;15240;50.812;4.792;2022-12-19T17:40:14;7.10;;;3.73;;
27893;SDS011;15240;50.812;4.792;2022-12-19T17:42:40;7.67;;;3.80;;
27893;SDS011;15240;50.812;4.792;2022-12-19T17:45:07;4.90;;;3.80;;
27893;SDS011;15240;50.812;4.792;2022-12-19T17:47:34;7.30;;;3.80;;
27893;SDS011;15240;50.812;4.792;2022-12-19T17:50:00;5.30;;;3.73;;